Terminal Aerodrome Forecast
Issued by NWS

Home | Current Version | Previous Version | Graphics & Text | Print | Product List | Glossary On
Versions: 1 2 3 4 5 6 7 8 9 10 11 12 13 14 15 16 17
000
FTUS43 KICT 292239 AAB
TAFHUT
TAF AMD
KHUT 292239Z 2923/3018 12020G30KT P6SM SCT050
     FM300000 16006KT P6SM SCT050
     FM300900 17007KT P6SM SCT015=

USA.gov is the U.S. government's official web portal to all federal, state and local government web resources and services.